sensor_id;sensor_type;location;lat;lon;timestamp;pressure;altitude;pressure_sealevel;temperature;humidity
10460;BME280;54412;51.206;6.888;2023-07-30T00:02:20;100286.44;;;19.41;90.77
10460;BME280;54412;51.206;6.888;2023-07-30T00:04:47;100286.16;;;19.44;91.18
10460;BME280;54412;51.206;6.888;2023-07-30T00:07:13;100292.22;;;19.37;92.79
10460;BME280;54412;51.206;6.888;2023-07-30T00:09:39;100287.28;;;19.32;90.00
10460;BME280;54412;51.206;6.888;2023-07-30T00:12:07;100289.69;;;19.35;89.66
10460;BME280;54412;51.206;6.888;2023-07-30T00:14:33;100288.53;;;19.28;90.30
10460;BME280;54412;51.206;6.888;2023-07-30T00:16:58;100284.16;;;19.27;91.40
10460;BME280;54412;51.206;6.888;2023-07-30T00:19:24;100286.97;;;19.26;92.00
10460;BME280;54412;51.206;6.888;2023-07-30T00:21:50;100285.41;;;19.14;90.83
10460;BME280;54412;51.206;6.888;2023-07-30T00:24:15;100285.28;;;19.15;91.09
10460;BME280;54412;51.206;6.888;2023-07-30T00:26:41;100285.97;;;19.17;91.59
10460;BME280;54412;51.206;6.888;2023-07-30T00:29:07;100281.06;;;19.22;92.53
10460;BME280;54412;51.206;6.888;2023-07-30T00:31:32;100290.75;;;19.14;92.71
10460;BME280;54412;51.206;6.888;2023-07-30T00:33:58;100300.03;;;19.10;92.49
10460;BME280;54412;51.206;6.888;2023-07-30T00:36:24;100298.50;;;19.17;91.14
10460;BME280;54412;51.206;6.888;2023-07-30T00:38:49;100295.50;;;18.91;92.72
10460;BME280;54412;51.206;6.888;2023-07-30T00:41:15;100307.31;;;18.89;92.33
10460;BME280;54412;51.206;6.888;2023-07-30T00:43:41;100301.97;;;18.89;92.91
10460;BME280;54412;51.206;6.888;2023-07-30T00:46:07;100293.94;;;18.98;91.92
10460;BME280;54412;51.206;6.888;2023-07-30T00:48:32;100295.56;;;18.61;93.38
10460;BME280;54412;51.206;6.888;2023-07-30T00:50:59;100292.22;;;18.68;94.16
10460;BME280;54412;51.206;6.888;2023-07-30T00:53:27;100294.84;;;18.59;94.27
10460;BME280;54412;51.206;6.888;2023-07-30T00:55:53;100301.38;;;18.75;93.39
10460;BME280;54412;51.206;6.888;2023-07-30T00:58:21;100291.78;;;18.63;93.86
10460;BME280;54412;51.206;6.888;2023-07-30T01:00:47;100295.44;;;18.72;93.13
10460;BME280;54412;51.206;6.888;2023-07-30T01:03:13;100295.88;;;18.77;91.99
10460;BME280;54412;51.206;6.888;2023-07-30T01:05:39;100297.69;;;18.67;92.68
10460;BME280;54412;51.206;6.888;2023-07-30T01:08:05;100305.56;;;18.78;92.92
10460;BME280;54412;51.206;6.888;2023-07-30T01:10:32;100309.66;;;18.82;91.49
10460;BME280;54412;51.206;6.888;2023-07-30T01:13:03;100310.91;;;18.68;93.11
10460;BME280;54412;51.206;6.888;2023-07-30T01:15:30;100312.63;;;18.79;93.48
10460;BME280;54412;51.206;6.888;2023-07-30T01:17:56;100299.94;;;18.71;93.99
10460;BME280;54412;51.206;6.888;2023-07-30T01:20:22;100298.69;;;18.75;93.87
10460;BME280;54412;51.206;6.888;2023-07-30T01:22:47;100319.59;;;18.61;94.65
10460;BME280;54412;51.206;6.888;2023-07-30T01:25:15;100322.31;;;18.70;94.20
10460;BME280;54412;51.206;6.888;2023-07-30T01:27:51;100320.34;;;18.82;93.02
10460;BME280;54412;51.206;6.888;2023-07-30T01:30:38;100318.22;;;18.66;94.04
10460;BME280;54412;51.206;6.888;2023-07-30T01:33:05;100315.53;;;18.66;94.76
10460;BME280;54412;51.206;6.888;2023-07-30T01:35:32;100318.25;;;18.86;92.80
10460;BME280;54412;51.206;6.888;2023-07-30T01:38:00;100322.16;;;18.72;93.60
10460;BME280;54412;51.206;6.888;2023-07-30T01:40:29;100322.69;;;18.66;94.39
10460;BME280;54412;51.206;6.888;2023-07-30T01:42:54;100324.59;;;18.85;92.87
10460;BME280;54412;51.206;6.888;2023-07-30T01:45:20;100330.63;;;18.77;92.07
10460;BME280;54412;51.206;6.888;2023-07-30T01:47:46;100331.63;;;18.86;91.01
10460;BME280;54412;51.206;6.888;2023-07-30T01:50:11;100330.22;;;18.82;90.18
10460;BME280;54412;51.206;6.888;2023-07-30T01:52:37;100338.28;;;18.61;90.63
10460;BME280;54412;51.206;6.888;2023-07-30T01:55:03;100342.97;;;18.78;91.31
10460;BME280;54412;51.206;6.888;2023-07-30T01:57:29;100341.97;;;18.69;91.00
10460;BME280;54412;51.206;6.888;2023-07-30T01:59:54;100333.44;;;18.75;90.90
10460;BME280;54412;51.206;6.888;2023-07-30T02:02:20;100319.81;;;18.88;89.17
10460;BME280;54412;51.206;6.888;2023-07-30T02:04:46;100319.34;;;18.73;88.09
10460;BME280;54412;51.206;6.888;2023-07-30T02:07:11;100326.38;;;18.65;87.60
10460;BME280;54412;51.206;6.888;2023-07-30T02:09:37;100334.53;;;18.73;88.21
10460;BME280;54412;51.206;6.888;2023-07-30T02:12:03;100328.91;;;18.66;88.27
10460;BME280;54412;51.206;6.888;2023-07-30T02:14:28;100339.63;;;18.76;88.17
10460;BME280;54412;51.206;6.888;2023-07-30T02:16:54;100327.09;;;18.76;88.44
10460;BME280;54412;51.206;6.888;2023-07-30T02:19:20;100318.03;;;18.58;89.39
10460;BME280;54412;51.206;6.888;2023-07-30T02:21:46;100314.72;;;18.75;87.28
10460;BME280;54412;51.206;6.888;2023-07-30T02:24:11;100321.19;;;18.73;88.14
10460;BME280;54412;51.206;6.888;2023-07-30T02:26:38;100330.28;;;18.61;87.93
10460;BME280;54412;51.206;6.888;2023-07-30T02:29:04;100333.25;;;18.67;87.39
10460;BME280;54412;51.206;6.888;2023-07-30T02:31:30;100322.16;;;18.72;88.80
10460;BME280;54412;51.206;6.888;2023-07-30T02:33:56;100332.94;;;18.61;90.47
10460;BME280;54412;51.206;6.888;2023-07-30T02:36:22;100333.63;;;18.53;92.07
10460;BME280;54412;51.206;6.888;2023-07-30T02:38:48;100318.53;;;18.43;93.12
10460;BME280;54412;51.206;6.888;2023-07-30T02:41:13;100326.22;;;18.36;91.77
10460;BME280;54412;51.206;6.888;2023-07-30T02:43:39;100331.38;;;18.58;91.44
10460;BME280;54412;51.206;6.888;2023-07-30T02:46:05;100331.09;;;18.52;89.27
10460;BME280;54412;51.206;6.888;2023-07-30T02:48:32;100324.69;;;18.73;88.33
10460;BME280;54412;51.206;6.888;2023-07-30T02:50:58;100328.84;;;18.47;89.60
10460;BME280;54412;51.206;6.888;2023-07-30T02:53:23;100328.50;;;18.41;88.95
10460;BME280;54412;51.206;6.888;2023-07-30T02:55:49;100334.84;;;18.49;87.17
10460;BME280;54412;51.206;6.888;2023-07-30T02:58:15;100344.13;;;18.45;85.91
10460;BME280;54412;51.206;6.888;2023-07-30T03:00:40;100341.91;;;18.50;85.06
10460;BME280;54412;51.206;6.888;2023-07-30T03:03:06;100346.41;;;18.29;85.12
10460;BME280;54412;51.206;6.888;2023-07-30T03:05:32;100343.47;;;18.32;85.00
10460;BME280;54412;51.206;6.888;2023-07-30T03:07:57;100354.25;;;18.42;85.08
10460;BME280;54412;51.206;6.888;2023-07-30T03:10:23;100355.06;;;18.42;86.13
10460;BME280;54412;51.206;6.888;2023-07-30T03:12:49;100355.19;;;18.41;86.72
10460;BME280;54412;51.206;6.888;2023-07-30T03:15:14;100354.25;;;18.42;86.02
10460;BME280;54412;51.206;6.888;2023-07-30T03:17:40;100352.13;;;18.25;85.87
10460;BME280;54412;51.206;6.888;2023-07-30T03:20:06;100344.41;;;18.22;88.22
10460;BME280;54412;51.206;6.888;2023-07-30T03:22:32;100347.00;;;18.33;85.85
10460;BME280;54412;51.206;6.888;2023-07-30T03:24:58;100347.38;;;18.28;86.40
10460;BME280;54412;51.206;6.888;2023-07-30T03:27:24;100353.50;;;18.19;87.71
10460;BME280;54412;51.206;6.888;2023-07-30T03:29:49;100355.66;;;18.25;85.34
10460;BME280;54412;51.206;6.888;2023-07-30T03:32:15;100358.97;;;18.38;85.38
10460;BME280;54412;51.206;6.888;2023-07-30T03:34:40;100362.47;;;18.39;86.63
10460;BME280;54412;51.206;6.888;2023-07-30T03:37:06;100362.53;;;18.28;87.44
10460;BME280;54412;51.206;6.888;2023-07-30T03:39:32;100363.72;;;18.35;86.33
10460;BME280;54412;51.206;6.888;2023-07-30T03:41:57;100366.19;;;18.27;85.49
10460;BME280;54412;51.206;6.888;2023-07-30T03:44:23;100372.19;;;18.19;84.72
10460;BME280;54412;51.206;6.888;2023-07-30T03:46:49;100370.66;;;18.17;84.02
10460;BME280;54412;51.206;6.888;2023-07-30T03:49:14;100369.78;;;18.16;84.79
10460;BME280;54412;51.206;6.888;2023-07-30T03:51:40;100368.94;;;18.16;85.65
10460;BME280;54412;51.206;6.888;2023-07-30T03:54:06;100364.38;;;18.27;85.18
10460;BME280;54412;51.206;6.888;2023-07-30T03:56:31;100371.25;;;18.30;86.56
10460;BME280;54412;51.206;6.888;2023-07-30T03:58:57;100376.00;;;18.17;86.71
10460;BME280;54412;51.206;6.888;2023-07-30T04:01:23;100370.88;;;18.34;85.87
10460;BME280;54412;51.206;6.888;2023-07-30T04:03:48;100370.44;;;18.29;85.42
10460;BME280;54412;51.206;6.888;2023-07-30T04:06:14;100373.31;;;18.17;85.03
10460;BME280;54412;51.206;6.888;2023-07-30T04:08:40;100367.88;;;18.28;85.09
10460;BME280;54412;51.206;6.888;2023-07-30T04:11:05;100368.28;;;18.23;83.18
10460;BME280;54412;51.206;6.888;2023-07-30T04:13:31;100370.50;;;18.18;82.70
10460;BME280;54412;51.206;6.888;2023-07-30T04:15:57;100371.34;;;18.19;82.37
10460;BME280;54412;51.206;6.888;2023-07-30T04:18:22;100369.84;;;18.05;83.75
10460;BME280;54412;51.206;6.888;2023-07-30T04:20:48;100362.94;;;18.03;84.55
10460;BME280;54412;51.206;6.888;2023-07-30T04:23:14;100358.84;;;18.19;83.94
10460;BME280;54412;51.206;6.888;2023-07-30T04:25:40;100359.25;;;18.15;85.29
10460;BME280;54412;51.206;6.888;2023-07-30T04:28:06;100374.72;;;18.21;83.80
10460;BME280;54412;51.206;6.888;2023-07-30T04:30:32;100377.22;;;18.13;83.38
10460;BME280;54412;51.206;6.888;2023-07-30T04:32:58;100376.44;;;18.22;83.68
10460;BME280;54412;51.206;6.888;2023-07-30T04:35:24;100382.50;;;18.24;81.97
10460;BME280;54412;51.206;6.888;2023-07-30T04:37:49;100386.00;;;18.04;82.19
10460;BME280;54412;51.206;6.888;2023-07-30T04:40:15;100389.78;;;18.22;83.07
10460;BME280;54412;51.206;6.888;2023-07-30T04:42:41;100386.31;;;18.10;81.91
10460;BME280;54412;51.206;6.888;2023-07-30T04:45:07;100398.31;;;17.95;80.84
10460;BME280;54412;51.206;6.888;2023-07-30T04:47:33;100398.72;;;17.80;83.30
10460;BME280;54412;51.206;6.888;2023-07-30T04:49:58;100388.44;;;17.75;83.34
10460;BME280;54412;51.206;6.888;2023-07-30T04:52:24;100398.53;;;17.92;81.98
10460;BME280;54412;51.206;6.888;2023-07-30T04:54:50;100392.66;;;17.77;82.53
10460;BME280;54412;51.206;6.888;2023-07-30T04:57:15;100397.09;;;17.88;82.20
10460;BME280;54412;51.206;6.888;2023-07-30T04:59:41;100395.56;;;17.86;82.18
10460;BME280;54412;51.206;6.888;2023-07-30T05:02:07;100403.16;;;17.90;82.01
10460;BME280;54412;51.206;6.888;2023-07-30T05:04:32;100392.03;;;17.85;81.31
10460;BME280;54412;51.206;6.888;2023-07-30T05:06:58;100395.59;;;17.74;82.86
10460;BME280;54412;51.206;6.888;2023-07-30T05:09:24;100394.25;;;17.80;83.27
10460;BME280;54412;51.206;6.888;2023-07-30T05:11:49;100399.41;;;17.61;83.09
10460;BME280;54412;51.206;6.888;2023-07-30T05:14:15;100402.25;;;17.80;82.56
10460;BME280;54412;51.206;6.888;2023-07-30T05:16:41;100402.31;;;17.58;83.50
10460;BME280;54412;51.206;6.888;2023-07-30T05:19:07;100406.91;;;17.67;83.49
10460;BME280;54412;51.206;6.888;2023-07-30T05:21:33;100396.75;;;17.61;82.73
10460;BME280;54412;51.206;6.888;2023-07-30T05:23:59;100395.47;;;17.76;82.12
10460;BME280;54412;51.206;6.888;2023-07-30T05:26:25;100400.00;;;17.64;83.00
10460;BME280;54412;51.206;6.888;2023-07-30T05:28:50;100404.78;;;17.39;83.39
10460;BME280;54412;51.206;6.888;2023-07-30T05:31:16;100405.59;;;17.50;84.89
10460;BME280;54412;51.206;6.888;2023-07-30T05:33:41;100402.84;;;17.84;83.38
10460;BME280;54412;51.206;6.888;2023-07-30T05:36:07;100402.25;;;17.80;83.03
10460;BME280;54412;51.206;6.888;2023-07-30T05:38:33;100399.78;;;17.45;83.80
10460;BME280;54412;51.206;6.888;2023-07-30T05:40:59;100398.09;;;17.44;85.07
10460;BME280;54412;51.206;6.888;2023-07-30T05:43:24;100401.97;;;17.40;85.64
10460;BME280;54412;51.206;6.888;2023-07-30T05:45:50;100407.88;;;17.66;85.97
10460;BME280;54412;51.206;6.888;2023-07-30T05:48:16;100402.44;;;17.88;86.01
10460;BME280;54412;51.206;6.888;2023-07-30T05:50:41;100406.41;;;17.73;85.65
10460;BME280;54412;51.206;6.888;2023-07-30T05:53:07;100405.97;;;17.57;85.00
10460;BME280;54412;51.206;6.888;2023-07-30T05:55:32;100403.75;;;17.62;85.85
10460;BME280;54412;51.206;6.888;2023-07-30T05:57:58;100408.13;;;17.63;85.83
10460;BME280;54412;51.206;6.888;2023-07-30T06:00:24;100407.75;;;17.67;86.34
10460;BME280;54412;51.206;6.888;2023-07-30T06:02:50;100401.81;;;17.64;85.64
10460;BME280;54412;51.206;6.888;2023-07-30T06:05:15;100404.66;;;17.51;86.47
10460;BME280;54412;51.206;6.888;2023-07-30T06:07:41;100399.88;;;17.66;86.63
10460;BME280;54412;51.206;6.888;2023-07-30T06:10:07;100406.56;;;17.60;86.10
10460;BME280;54412;51.206;6.888;2023-07-30T06:12:33;100410.75;;;17.74;85.58
10460;BME280;54412;51.206;6.888;2023-07-30T06:14:58;100414.19;;;17.54;85.00
10460;BME280;54412;51.206;6.888;2023-07-30T06:17:24;100410.19;;;17.59;86.29
10460;BME280;54412;51.206;6.888;2023-07-30T06:19:50;100408.06;;;17.74;85.64
10460;BME280;54412;51.206;6.888;2023-07-30T06:22:15;100415.44;;;17.82;86.18
10460;BME280;54412;51.206;6.888;2023-07-30T06:24:41;100420.06;;;17.80;84.97
10460;BME280;54412;51.206;6.888;2023-07-30T06:27:07;100421.84;;;17.90;84.69
10460;BME280;54412;51.206;6.888;2023-07-30T06:29:35;100423.03;;;17.65;85.74
10460;BME280;54412;51.206;6.888;2023-07-30T06:32:01;100425.38;;;17.59;85.92
10460;BME280;54412;51.206;6.888;2023-07-30T06:34:27;100422.81;;;17.89;86.54
10460;BME280;54412;51.206;6.888;2023-07-30T06:36:52;100425.00;;;17.95;84.53
10460;BME280;54412;51.206;6.888;2023-07-30T06:39:18;100424.84;;;17.97;85.63
10460;BME280;54412;51.206;6.888;2023-07-30T06:41:44;100429.19;;;17.77;84.80
10460;BME280;54412;51.206;6.888;2023-07-30T06:44:09;100429.97;;;17.89;84.68
10460;BME280;54412;51.206;6.888;2023-07-30T06:46:35;100416.13;;;17.95;84.58
10460;BME280;54412;51.206;6.888;2023-07-30T06:49:01;100418.56;;;17.87;84.38
10460;BME280;54412;51.206;6.888;2023-07-30T06:51:27;100423.53;;;17.91;83.44
10460;BME280;54412;51.206;6.888;2023-07-30T06:53:52;100428.00;;;17.70;84.24
10460;BME280;54412;51.206;6.888;2023-07-30T06:56:18;100428.75;;;17.93;84.20
10460;BME280;54412;51.206;6.888;2023-07-30T06:58:44;100425.00;;;17.95;84.09
10460;BME280;54412;51.206;6.888;2023-07-30T07:01:10;100433.44;;;18.00;83.71
10460;BME280;54412;51.206;6.888;2023-07-30T07:03:35;100437.84;;;17.90;83.72
10460;BME280;54412;51.206;6.888;2023-07-30T07:06:01;100442.31;;;18.01;84.06
10460;BME280;54412;51.206;6.888;2023-07-30T07:08:27;100431.75;;;17.67;83.75
10460;BME280;54412;51.206;6.888;2023-07-30T07:10:53;100440.94;;;17.74;84.91
10460;BME280;54412;51.206;6.888;2023-07-30T07:13:18;100434.25;;;17.80;83.45
10460;BME280;54412;51.206;6.888;2023-07-30T07:15:45;100436.31;;;18.08;83.51
10460;BME280;54412;51.206;6.888;2023-07-30T07:18:10;100433.50;;;18.10;84.15
10460;BME280;54412;51.206;6.888;2023-07-30T07:20:37;100436.84;;;18.02;83.79
10460;BME280;54412;51.206;6.888;2023-07-30T07:23:03;100436.91;;;18.12;83.29
10460;BME280;54412;51.206;6.888;2023-07-30T07:25:29;100449.25;;;17.92;83.04
10460;BME280;54412;51.206;6.888;2023-07-30T07:27:55;100452.34;;;17.77;84.06
10460;BME280;54412;51.206;6.888;2023-07-30T07:30:21;100458.28;;;17.80;84.34
10460;BME280;54412;51.206;6.888;2023-07-30T07:32:46;100454.22;;;17.97;84.40
10460;BME280;54412;51.206;6.888;2023-07-30T07:35:19;100450.53;;;17.77;84.13
10460;BME280;54412;51.206;6.888;2023-07-30T07:37:45;100453.13;;;17.88;84.16
10460;BME280;54412;51.206;6.888;2023-07-30T07:40:11;100461.00;;;18.01;85.03
10460;BME280;54412;51.206;6.888;2023-07-30T07:42:38;100449.59;;;18.19;83.08
10460;BME280;54412;51.206;6.888;2023-07-30T07:45:06;100451.78;;;18.25;83.34
10460;BME280;54412;51.206;6.888;2023-07-30T07:47:32;100459.81;;;18.14;83.66
10460;BME280;54412;51.206;6.888;2023-07-30T07:49:58;100459.69;;;18.16;83.49
10460;BME280;54412;51.206;6.888;2023-07-30T07:52:23;100462.44;;;18.25;84.37
10460;BME280;54412;51.206;6.888;2023-07-30T07:54:49;100463.13;;;18.38;83.77
10460;BME280;54412;51.206;6.888;2023-07-30T07:57:15;100464.47;;;18.33;82.92
10460;BME280;54412;51.206;6.888;2023-07-30T07:59:40;100461.00;;;18.21;82.92
10460;BME280;54412;51.206;6.888;2023-07-30T08:02:11;100472.75;;;17.98;82.31
10460;BME280;54412;51.206;6.888;2023-07-30T08:04:37;100460.91;;;17.91;83.35
10460;BME280;54412;51.206;6.888;2023-07-30T08:07:03;100469.72;;;18.23;82.38
10460;BME280;54412;51.206;6.888;2023-07-30T08:09:30;100468.75;;;18.24;82.60
10460;BME280;54412;51.206;6.888;2023-07-30T08:11:55;100470.13;;;18.39;82.45
10460;BME280;54412;51.206;6.888;2023-07-30T08:14:21;100467.38;;;18.30;81.31
10460;BME280;54412;51.206;6.888;2023-07-30T08:16:47;100473.53;;;18.10;83.60
10460;BME280;54412;51.206;6.888;2023-07-30T08:19:12;100469.91;;;18.11;82.37
10460;BME280;54412;51.206;6.888;2023-07-30T08:21:38;100468.16;;;18.21;82.82
10460;BME280;54412;51.206;6.888;2023-07-30T08:24:04;100463.59;;;18.43;82.59
10460;BME280;54412;51.206;6.888;2023-07-30T08:26:31;100459.88;;;18.55;83.28
10460;BME280;54412;51.206;6.888;2023-07-30T08:28:57;100457.25;;;18.65;80.43
10460;BME280;54412;51.206;6.888;2023-07-30T08:31:23;100456.28;;;18.66;79.94
10460;BME280;54412;51.206;6.888;2023-07-30T08:33:49;100461.16;;;18.61;79.59
10460;BME280;54412;51.206;6.888;2023-07-30T08:36:15;100457.34;;;18.84;78.81
10460;BME280;54412;51.206;6.888;2023-07-30T08:38:40;100458.56;;;19.01;79.14
10460;BME280;54412;51.206;6.888;2023-07-30T08:41:07;100464.88;;;19.30;78.09
10460;BME280;54412;51.206;6.888;2023-07-30T08:43:34;100467.78;;;19.17;78.31
10460;BME280;54412;51.206;6.888;2023-07-30T08:46:00;100468.84;;;19.05;78.06
10460;BME280;54412;51.206;6.888;2023-07-30T08:48:26;100466.22;;;18.85;78.41
10460;BME280;54412;51.206;6.888;2023-07-30T08:50:56;100471.56;;;19.15;78.12
10460;BME280;54412;51.206;6.888;2023-07-30T08:53:25;100475.47;;;19.31;78.82
10460;BME280;54412;51.206;6.888;2023-07-30T08:55:55;100484.91;;;19.35;77.97
10460;BME280;54412;51.206;6.888;2023-07-30T08:58:23;100471.84;;;19.42;77.10
10460;BME280;54412;51.206;6.888;2023-07-30T09:00:52;100482.56;;;19.51;76.98
10460;BME280;54412;51.206;6.888;2023-07-30T09:03:21;100489.47;;;19.54;75.75
10460;BME280;54412;51.206;6.888;2023-07-30T09:05:48;100476.69;;;19.67;75.43
10460;BME280;54412;51.206;6.888;2023-07-30T09:08:14;100487.63;;;19.54;75.97
10460;BME280;54412;51.206;6.888;2023-07-30T09:10:41;100489.91;;;19.59;76.37
10460;BME280;54412;51.206;6.888;2023-07-30T09:13:06;100503.25;;;19.49;74.65
10460;BME280;54412;51.206;6.888;2023-07-30T09:15:35;100496.44;;;19.36;73.02
10460;BME280;54412;51.206;6.888;2023-07-30T09:18:05;100500.09;;;19.35;74.58
10460;BME280;54412;51.206;6.888;2023-07-30T09:20:41;100504.06;;;19.40;73.14
10460;BME280;54412;51.206;6.888;2023-07-30T09:23:09;100505.41;;;19.65;72.63
10460;BME280;54412;51.206;6.888;2023-07-30T09:25:35;100507.41;;;19.92;73.01
10460;BME280;54412;51.206;6.888;2023-07-30T09:28:02;100519.44;;;20.07;72.00
10460;BME280;54412;51.206;6.888;2023-07-30T09:30:28;100514.50;;;20.12;70.95
10460;BME280;54412;51.206;6.888;2023-07-30T09:32:56;100519.03;;;20.21;69.94
10460;BME280;54412;51.206;6.888;2023-07-30T09:35:25;100508.63;;;20.56;69.13
10460;BME280;54412;51.206;6.888;2023-07-30T09:38:02;100507.50;;;20.49;68.03
10460;BME280;54412;51.206;6.888;2023-07-30T09:40:36;100520.72;;;20.69;67.22
10460;BME280;54412;51.206;6.888;2023-07-30T09:43:05;100528.19;;;20.56;68.55
10460;BME280;54412;51.206;6.888;2023-07-30T09:45:36;100525.19;;;20.88;66.98
10460;BME280;54412;51.206;6.888;2023-07-30T09:48:04;100525.25;;;20.59;66.71
10460;BME280;54412;51.206;6.888;2023-07-30T09:50:33;100536.31;;;20.93;65.45
10460;BME280;54412;51.206;6.888;2023-07-30T09:53:01;100526.22;;;20.68;65.21
10460;BME280;54412;51.206;6.888;2023-07-30T09:55:27;100530.66;;;20.96;64.36
10460;BME280;54412;51.206;6.888;2023-07-30T09:57:53;100521.97;;;20.65;65.24
10460;BME280;54412;51.206;6.888;2023-07-30T10:00:19;100527.19;;;20.76;65.04
10460;BME280;54412;51.206;6.888;2023-07-30T10:02:46;100520.81;;;20.87;64.10
10460;BME280;54412;51.206;6.888;2023-07-30T10:05:20;100527.88;;;20.78;62.42
10460;BME280;54412;51.206;6.888;2023-07-30T10:08:00;100527.78;;;20.61;64.16
10460;BME280;54412;51.206;6.888;2023-07-30T10:10:29;100520.41;;;20.82;63.15
10460;BME280;54412;51.206;6.888;2023-07-30T10:13:07;100522.56;;;20.59;63.73
10460;BME280;54412;51.206;6.888;2023-07-30T10:15:38;100512.00;;;20.48;61.91
10460;BME280;54412;51.206;6.888;2023-07-30T10:18:04;100516.78;;;20.26;62.77
10460;BME280;54412;51.206;6.888;2023-07-30T10:20:31;100522.00;;;20.56;62.62
10460;BME280;54412;51.206;6.888;2023-07-30T10:22:59;100526.16;;;20.97;63.97
10460;BME280;54412;51.206;6.888;2023-07-30T10:25:43;100509.66;;;21.01;61.30
10460;BME280;54412;51.206;6.888;2023-07-30T10:31:03;100512.97;;;20.66;60.51
10460;BME280;54412;51.206;6.888;2023-07-30T10:33:52;100516.53;;;20.29;61.65
10460;BME280;54412;51.206;6.888;2023-07-30T10:36:45;100507.75;;;20.46;63.05
10460;BME280;54412;51.206;6.888;2023-07-30T10:39:13;100515.66;;;20.57;63.22
10460;BME280;54412;51.206;6.888;2023-07-30T10:41:39;100522.41;;;20.61;62.12
10460;BME280;54412;51.206;6.888;2023-07-30T10:44:05;100513.41;;;20.52;62.95
10460;BME280;54412;51.206;6.888;2023-07-30T10:46:31;100520.56;;;20.80;62.19
10460;BME280;54412;51.206;6.888;2023-07-30T10:48:57;100529.81;;;21.15;62.42
10460;BME280;54412;51.206;6.888;2023-07-30T10:51:23;100518.59;;;21.29;61.03
10460;BME280;54412;51.206;6.888;2023-07-30T10:53:50;100511.59;;;21.18;61.47
10460;BME280;54412;51.206;6.888;2023-07-30T10:56:23;100511.19;;;21.13;63.20
10460;BME280;54412;51.206;6.888;2023-07-30T10:58:52;100517.00;;;21.36;62.44
10460;BME280;54412;51.206;6.888;2023-07-30T11:01:18;100518.41;;;21.40;60.89
10460;BME280;54412;51.206;6.888;2023-07-30T11:03:49;100514.88;;;21.39;59.83
10460;BME280;54412;51.206;6.888;2023-07-30T11:06:22;100507.56;;;21.32;59.37
10460;BME280;54412;51.206;6.888;2023-07-30T11:08:48;100513.16;;;21.11;58.88
10460;BME280;54412;51.206;6.888;2023-07-30T11:11:14;100513.00;;;21.13;58.80
10460;BME280;54412;51.206;6.888;2023-07-30T11:13:46;100523.31;;;21.17;59.29
10460;BME280;54412;51.206;6.888;2023-07-30T11:16:14;100516.28;;;20.97;58.83
10460;BME280;54412;51.206;6.888;2023-07-30T11:18:42;100512.91;;;20.86;58.71
10460;BME280;54412;51.206;6.888;2023-07-30T11:21:13;100508.34;;;21.15;58.09
10460;BME280;54412;51.206;6.888;2023-07-30T11:23:41;100511.72;;;21.26;57.27
10460;BME280;54412;51.206;6.888;2023-07-30T11:26:12;100517.13;;;21.44;56.14
10460;BME280;54412;51.206;6.888;2023-07-30T11:28:40;100533.97;;;21.63;56.01
10460;BME280;54412;51.206;6.888;2023-07-30T11:31:12;100531.09;;;21.74;55.83
10460;BME280;54412;51.206;6.888;2023-07-30T11:33:42;100523.16;;;22.00;53.80
10460;BME280;54412;51.206;6.888;2023-07-30T11:36:28;100528.84;;;21.79;55.23
10460;BME280;54412;51.206;6.888;2023-07-30T11:38:54;100541.25;;;21.80;54.91
10460;BME280;54412;51.206;6.888;2023-07-30T11:41:21;100524.31;;;21.80;55.68
10460;BME280;54412;51.206;6.888;2023-07-30T11:43:48;100539.47;;;21.35;55.88
10460;BME280;54412;51.206;6.888;2023-07-30T11:46:16;100532.16;;;21.64;56.36
10460;BME280;54412;51.206;6.888;2023-07-30T11:48:46;100528.66;;;21.54;56.57
10460;BME280;54412;51.206;6.888;2023-07-30T11:51:29;100548.94;;;21.39;56.93
10460;BME280;54412;51.206;6.888;2023-07-30T11:54:01;100543.56;;;21.66;57.68
10460;BME280;54412;51.206;6.888;2023-07-30T11:56:30;100550.38;;;21.60;56.72
10460;BME280;54412;51.206;6.888;2023-07-30T11:59:00;100535.84;;;21.26;57.30
10460;BME280;54412;51.206;6.888;2023-07-30T12:01:29;100556.69;;;21.32;57.73
10460;BME280;54412;51.206;6.888;2023-07-30T12:03:57;100536.41;;;21.84;56.53
10460;BME280;54412;51.206;6.888;2023-07-30T12:06:23;100544.84;;;22.34;56.91
10460;BME280;54412;51.206;6.888;2023-07-30T12:08:50;100557.53;;;21.97;56.85
10460;BME280;54412;51.206;6.888;2023-07-30T12:11:18;100558.44;;;21.88;56.91
10460;BME280;54412;51.206;6.888;2023-07-30T12:13:47;100563.16;;;21.76;56.39
10460;BME280;54412;51.206;6.888;2023-07-30T12:16:15;100565.19;;;21.64;56.97
10460;BME280;54412;51.206;6.888;2023-07-30T12:18:41;100574.13;;;21.55;58.95
10460;BME280;54412;51.206;6.888;2023-07-30T12:21:08;100587.38;;;21.30;57.53
10460;BME280;54412;51.206;6.888;2023-07-30T12:23:37;100583.22;;;21.35;57.48
10460;BME280;54412;51.206;6.888;2023-07-30T12:26:03;100598.03;;;21.03;56.47
10460;BME280;54412;51.206;6.888;2023-07-30T12:28:33;100591.25;;;21.08;55.03
10460;BME280;54412;51.206;6.888;2023-07-30T12:31:00;100595.53;;;21.38;55.22
10460;BME280;54412;51.206;6.888;2023-07-30T12:33:26;100588.97;;;21.50;54.31
10460;BME280;54412;51.206;6.888;2023-07-30T12:35:52;100593.38;;;21.41;54.26
10460;BME280;54412;51.206;6.888;2023-07-30T12:38:18;100587.66;;;21.63;54.88
10460;BME280;54412;51.206;6.888;2023-07-30T12:40:44;100598.25;;;21.65;52.90
10460;BME280;54412;51.206;6.888;2023-07-30T12:43:10;100593.22;;;21.52;52.20
10460;BME280;54412;51.206;6.888;2023-07-30T12:45:35;100586.41;;;20.93;53.88
10460;BME280;54412;51.206;6.888;2023-07-30T12:48:01;100600.50;;;21.14;54.51
10460;BME280;54412;51.206;6.888;2023-07-30T12:50:27;100602.09;;;21.07;54.31
10460;BME280;54412;51.206;6.888;2023-07-30T12:52:53;100604.63;;;20.99;54.33